sensor_id;sensor_type;location;lat;lon;timestamp;temperature;humidity
7317;DHT22;3699;51.462;6.696;2022-08-30T00:01:11;19.50;99.90
7317;DHT22;3699;51.462;6.696;2022-08-30T00:03:40;19.50;99.90
7317;DHT22;3699;51.462;6.696;2022-08-30T00:06:10;19.50;99.90
7317;DHT22;3699;51.462;6.696;2022-08-30T00:08:37;19.50;99.90
7317;DHT22;3699;51.462;6.696;2022-08-30T00:11:07;19.50;99.90
7317;DHT22;3699;51.462;6.696;2022-08-30T00:13:35;19.50;99.90
7317;DHT22;3699;51.462;6.696;2022-08-30T00:16:02;19.50;99.90
7317;DHT22;3699;51.462;6.696;2022-08-30T00:18:33;19.50;99.90
7317;DHT22;3699;51.462;6.696;2022-08-30T00:21:00;19.50;99.90
7317;DHT22;3699;51.462;6.696;2022-08-30T00:23:27;19.50;99.90
7317;DHT22;3699;51.462;6.696;2022-08-30T00:25:53;19.50;99.90
7317;DHT22;3699;51.462;6.696;2022-08-30T00:28:20;19.50;99.90
7317;DHT22;3699;51.462;6.696;2022-08-30T00:30:47;19.50;99.90
7317;DHT22;3699;51.462;6.696;2022-08-30T00:33:14;19.50;99.90
7317;DHT22;3699;51.462;6.696;2022-08-30T00:35:43;19.50;99.90
7317;DHT22;3699;51.462;6.696;2022-08-30T00:38:11;19.50;99.90
7317;DHT22;3699;51.462;6.696;2022-08-30T00:40:39;19.50;99.90
7317;DHT22;3699;51.462;6.696;2022-08-30T00:43:11;19.40;99.90
7317;DHT22;3699;51.462;6.696;2022-08-30T00:45:41;19.40;99.90
7317;DHT22;3699;51.462;6.696;2022-08-30T00:48:08;19.30;99.90
7317;DHT22;3699;51.462;6.696;2022-08-30T00:50:39;19.30;99.90
7317;DHT22;3699;51.462;6.696;2022-08-30T00:53:12;19.30;99.90
7317;DHT22;3699;51.462;6.696;2022-08-30T00:55:41;19.30;99.90
7317;DHT22;3699;51.462;6.696;2022-08-30T00:58:12;19.20;99.90
7317;DHT22;3699;51.462;6.696;2022-08-30T01:00:40;19.20;99.90
7317;DHT22;3699;51.462;6.696;2022-08-30T01:03:07;19.20;99.90
7317;DHT22;3699;51.462;6.696;2022-08-30T01:05:35;19.20;99.90
7317;DHT22;3699;51.462;6.696;2022-08-30T01:08:03;19.20;99.90
7317;DHT22;3699;51.462;6.696;2022-08-30T01:10:32;19.20;99.90
7317;DHT22;3699;51.462;6.696;2022-08-30T01:12:59;19.20;99.90
7317;DHT22;3699;51.462;6.696;2022-08-30T01:15:26;19.20;99.90
7317;DHT22;3699;51.462;6.696;2022-08-30T01:17:54;19.10;99.90
7317;DHT22;3699;51.462;6.696;2022-08-30T01:20:25;19.20;99.90
7317;DHT22;3699;51.462;6.696;2022-08-30T01:23:03;19.20;99.90
7317;DHT22;3699;51.462;6.696;2022-08-30T01:25:33;19.10;99.90
7317;DHT22;3699;51.462;6.696;2022-08-30T01:28:04;19.10;99.90
7317;DHT22;3699;51.462;6.696;2022-08-30T01:30:32;19.10;99.90
7317;DHT22;3699;51.462;6.696;2022-08-30T01:33:01;19.10;99.90
7317;DHT22;3699;51.462;6.696;2022-08-30T01:35:34;19.00;99.90
7317;DHT22;3699;51.462;6.696;2022-08-30T01:38:02;19.10;99.90
7317;DHT22;3699;51.462;6.696;2022-08-30T01:40:29;19.10;99.90
7317;DHT22;3699;51.462;6.696;2022-08-30T01:42:56;19.10;99.90
7317;DHT22;3699;51.462;6.696;2022-08-30T01:45:23;19.00;99.90
7317;DHT22;3699;51.462;6.696;2022-08-30T01:47:49;18.90;99.90
7317;DHT22;3699;51.462;6.696;2022-08-30T01:50:16;18.90;99.90
7317;DHT22;3699;51.462;6.696;2022-08-30T01:52:43;18.90;99.90
7317;DHT22;3699;51.462;6.696;2022-08-30T01:55:11;18.90;99.90
7317;DHT22;3699;51.462;6.696;2022-08-30T01:57:38;18.90;99.90
7317;DHT22;3699;51.462;6.696;2022-08-30T02:00:07;18.90;99.90
7317;DHT22;3699;51.462;6.696;2022-08-30T02:02:34;18.90;99.90
7317;DHT22;3699;51.462;6.696;2022-08-30T02:05:02;18.90;99.90
7317;DHT22;3699;51.462;6.696;2022-08-30T02:07:29;18.80;99.90
7317;DHT22;3699;51.462;6.696;2022-08-30T02:12:24;18.80;99.90
7317;DHT22;3699;51.462;6.696;2022-08-30T02:14:51;18.80;99.90
7317;DHT22;3699;51.462;6.696;2022-08-30T02:17:18;18.80;99.90
7317;DHT22;3699;51.462;6.696;2022-08-30T02:19:45;18.80;99.90
7317;DHT22;3699;51.462;6.696;2022-08-30T02:22:12;18.70;99.90
7317;DHT22;3699;51.462;6.696;2022-08-30T02:24:39;18.80;99.90
7317;DHT22;3699;51.462;6.696;2022-08-30T02:27:05;18.80;99.90
7317;DHT22;3699;51.462;6.696;2022-08-30T02:29:34;18.70;99.90
7317;DHT22;3699;51.462;6.696;2022-08-30T02:32:01;18.70;99.90
7317;DHT22;3699;51.462;6.696;2022-08-30T02:34:27;18.70;99.90
7317;DHT22;3699;51.462;6.696;2022-08-30T02:36:54;18.70;99.90
7317;DHT22;3699;51.462;6.696;2022-08-30T02:39:21;18.70;99.90
7317;DHT22;3699;51.462;6.696;2022-08-30T02:41:47;18.60;99.90
7317;DHT22;3699;51.462;6.696;2022-08-30T02:44:14;18.70;99.90
7317;DHT22;3699;51.462;6.696;2022-08-30T02:46:43;18.60;99.90
7317;DHT22;3699;51.462;6.696;2022-08-30T02:49:10;18.50;99.90
7317;DHT22;3699;51.462;6.696;2022-08-30T02:51:37;18.50;99.90
7317;DHT22;3699;51.462;6.696;2022-08-30T02:54:04;18.40;99.90
7317;DHT22;3699;51.462;6.696;2022-08-30T02:56:31;18.50;99.90
7317;DHT22;3699;51.462;6.696;2022-08-30T02:58:58;18.40;99.90
7317;DHT22;3699;51.462;6.696;2022-08-30T03:01:25;18.40;99.90
7317;DHT22;3699;51.462;6.696;2022-08-30T03:03:53;18.40;99.90
7317;DHT22;3699;51.462;6.696;2022-08-30T03:06:19;18.50;99.90
7317;DHT22;3699;51.462;6.696;2022-08-30T03:11:13;18.40;99.90
7317;DHT22;3699;51.462;6.696;2022-08-30T03:13:40;18.40;99.90
7317;DHT22;3699;51.462;6.696;2022-08-30T03:16:07;18.40;99.90
7317;DHT22;3699;51.462;6.696;2022-08-30T03:18:34;18.40;99.90
7317;DHT22;3699;51.462;6.696;2022-08-30T03:21:08;18.40;99.90
7317;DHT22;3699;51.462;6.696;2022-08-30T03:23:36;18.40;99.90
7317;DHT22;3699;51.462;6.696;2022-08-30T03:26:02;18.40;99.90
7317;DHT22;3699;51.462;6.696;2022-08-30T03:28:29;18.40;99.90
7317;DHT22;3699;51.462;6.696;2022-08-30T03:30:56;18.40;99.90
7317;DHT22;3699;51.462;6.696;2022-08-30T03:33:22;18.30;99.90
7317;DHT22;3699;51.462;6.696;2022-08-30T03:38:18;18.20;99.90
7317;DHT22;3699;51.462;6.696;2022-08-30T03:40:44;18.30;99.90
7317;DHT22;3699;51.462;6.696;2022-08-30T03:43:12;18.20;99.90
7317;DHT22;3699;51.462;6.696;2022-08-30T03:45:39;18.30;99.90
7317;DHT22;3699;51.462;6.696;2022-08-30T03:48:06;18.30;99.90
7317;DHT22;3699;51.462;6.696;2022-08-30T03:50:33;18.20;99.90
7317;DHT22;3699;51.462;6.696;2022-08-30T03:53:01;18.20;99.90
7317;DHT22;3699;51.462;6.696;2022-08-30T03:55:29;18.20;99.90
7317;DHT22;3699;51.462;6.696;2022-08-30T03:57:56;18.10;99.90
7317;DHT22;3699;51.462;6.696;2022-08-30T04:00:23;18.10;99.90
7317;DHT22;3699;51.462;6.696;2022-08-30T04:02:50;18.10;99.90
7317;DHT22;3699;51.462;6.696;2022-08-30T04:05:16;18.10;99.90
7317;DHT22;3699;51.462;6.696;2022-08-30T04:07:43;18.10;99.90
7317;DHT22;3699;51.462;6.696;2022-08-30T04:10:10;18.00;99.90
7317;DHT22;3699;51.462;6.696;2022-08-30T04:12:38;18.00;99.90
7317;DHT22;3699;51.462;6.696;2022-08-30T04:15:06;17.90;99.90
7317;DHT22;3699;51.462;6.696;2022-08-30T04:17:35;17.90;99.90
7317;DHT22;3699;51.462;6.696;2022-08-30T04:20:02;17.90;99.90
7317;DHT22;3699;51.462;6.696;2022-08-30T04:22:29;17.90;99.90
7317;DHT22;3699;51.462;6.696;2022-08-30T04:24:55;17.80;99.90
7317;DHT22;3699;51.462;6.696;2022-08-30T04:27:22;17.80;99.90
7317;DHT22;3699;51.462;6.696;2022-08-30T04:29:50;17.70;99.90
7317;DHT22;3699;51.462;6.696;2022-08-30T04:32:18;17.70;99.90
7317;DHT22;3699;51.462;6.696;2022-08-30T04:34:45;17.60;99.90
7317;DHT22;3699;51.462;6.696;2022-08-30T04:37:11;17.60;99.90
7317;DHT22;3699;51.462;6.696;2022-08-30T04:39:39;17.60;99.90
7317;DHT22;3699;51.462;6.696;2022-08-30T04:42:07;17.60;99.90
7317;DHT22;3699;51.462;6.696;2022-08-30T04:44:36;17.70;99.90
7317;DHT22;3699;51.462;6.696;2022-08-30T04:47:04;17.70;99.90
7317;DHT22;3699;51.462;6.696;2022-08-30T04:49:30;17.70;99.90
7317;DHT22;3699;51.462;6.696;2022-08-30T04:51:57;17.70;99.90
7317;DHT22;3699;51.462;6.696;2022-08-30T04:54:24;17.70;99.90
7317;DHT22;3699;51.462;6.696;2022-08-30T04:56:50;17.80;99.90
7317;DHT22;3699;51.462;6.696;2022-08-30T04:59:17;17.80;99.90
7317;DHT22;3699;51.462;6.696;2022-08-30T05:01:44;17.80;99.90
7317;DHT22;3699;51.462;6.696;2022-08-30T05:04:12;17.80;99.90
7317;DHT22;3699;51.462;6.696;2022-08-30T05:06:39;17.80;99.90
7317;DHT22;3699;51.462;6.696;2022-08-30T05:09:06;17.80;99.90
7317;DHT22;3699;51.462;6.696;2022-08-30T05:11:33;17.80;99.90
7317;DHT22;3699;51.462;6.696;2022-08-30T05:13:59;17.70;99.90
7317;DHT22;3699;51.462;6.696;2022-08-30T05:16:26;17.80;99.90
7317;DHT22;3699;51.462;6.696;2022-08-30T05:18:53;17.80;99.90
7317;DHT22;3699;51.462;6.696;2022-08-30T05:21:23;17.90;99.90
7317;DHT22;3699;51.462;6.696;2022-08-30T05:23:52;17.80;99.90
7317;DHT22;3699;51.462;6.696;2022-08-30T05:26:21;18.00;99.90
7317;DHT22;3699;51.462;6.696;2022-08-30T05:28:48;18.00;99.90
7317;DHT22;3699;51.462;6.696;2022-08-30T05:31:16;18.00;99.90
7317;DHT22;3699;51.462;6.696;2022-08-30T05:33:44;18.00;99.90
7317;DHT22;3699;51.462;6.696;2022-08-30T05:36:13;18.10;99.90
7317;DHT22;3699;51.462;6.696;2022-08-30T05:38:42;18.10;99.90
7317;DHT22;3699;51.462;6.696;2022-08-30T05:41:09;18.10;99.90
7317;DHT22;3699;51.462;6.696;2022-08-30T05:43:35;18.20;99.90
7317;DHT22;3699;51.462;6.696;2022-08-30T05:46:04;18.30;99.90
7317;DHT22;3699;51.462;6.696;2022-08-30T05:48:32;18.50;99.90
7317;DHT22;3699;51.462;6.696;2022-08-30T05:51:04;19.20;99.90
7317;DHT22;3699;51.462;6.696;2022-08-30T05:53:32;19.60;99.90
7317;DHT22;3699;51.462;6.696;2022-08-30T05:56:01;19.90;99.90
7317;DHT22;3699;51.462;6.696;2022-08-30T05:58:28;20.00;99.90
7317;DHT22;3699;51.462;6.696;2022-08-30T06:00:55;20.40;99.90
7317;DHT22;3699;51.462;6.696;2022-08-30T06:03:22;20.90;99.90
7317;DHT22;3699;51.462;6.696;2022-08-30T06:05:49;21.30;99.90
7317;DHT22;3699;51.462;6.696;2022-08-30T06:08:16;21.70;99.90
7317;DHT22;3699;51.462;6.696;2022-08-30T06:10:43;21.80;99.90
7317;DHT22;3699;51.462;6.696;2022-08-30T06:13:12;22.00;99.90
7317;DHT22;3699;51.462;6.696;2022-08-30T06:15:39;22.00;99.90
7317;DHT22;3699;51.462;6.696;2022-08-30T06:18:08;21.90;99.90
7317;DHT22;3699;51.462;6.696;2022-08-30T06:20:39;21.50;99.90
7317;DHT22;3699;51.462;6.696;2022-08-30T06:23:06;21.40;99.90
7317;DHT22;3699;51.462;6.696;2022-08-30T06:25:34;21.30;99.90
7317;DHT22;3699;51.462;6.696;2022-08-30T06:28:02;21.20;99.90
7317;DHT22;3699;51.462;6.696;2022-08-30T06:30:30;21.00;99.90
7317;DHT22;3699;51.462;6.696;2022-08-30T06:32:57;21.00;99.90
7317;DHT22;3699;51.462;6.696;2022-08-30T06:35:24;20.90;99.90
7317;DHT22;3699;51.462;6.696;2022-08-30T06:37:51;20.90;99.90
7317;DHT22;3699;51.462;6.696;2022-08-30T06:40:18;21.40;99.90
7317;DHT22;3699;51.462;6.696;2022-08-30T06:42:46;21.40;99.90
7317;DHT22;3699;51.462;6.696;2022-08-30T06:45:13;22.20;99.90
7317;DHT22;3699;51.462;6.696;2022-08-30T06:47:43;22.30;99.90
7317;DHT22;3699;51.462;6.696;2022-08-30T06:50:11;22.40;99.90
7317;DHT22;3699;51.462;6.696;2022-08-30T06:55:07;22.60;99.90
7317;DHT22;3699;51.462;6.696;2022-08-30T06:57:34;22.70;99.90
7317;DHT22;3699;51.462;6.696;2022-08-30T07:00:01;23.40;99.90
7317;DHT22;3699;51.462;6.696;2022-08-30T07:02:27;23.60;99.90
7317;DHT22;3699;51.462;6.696;2022-08-30T07:04:56;23.80;99.90
7317;DHT22;3699;51.462;6.696;2022-08-30T07:07:22;23.90;99.90
7317;DHT22;3699;51.462;6.696;2022-08-30T07:09:49;24.00;99.90
7317;DHT22;3699;51.462;6.696;2022-08-30T07:12:16;24.30;99.90
7317;DHT22;3699;51.462;6.696;2022-08-30T07:14:43;24.60;99.90
7317;DHT22;3699;51.462;6.696;2022-08-30T07:19:56;24.50;99.90
7317;DHT22;3699;51.462;6.696;2022-08-30T07:22:22;24.50;99.90
7317;DHT22;3699;51.462;6.696;2022-08-30T07:24:49;24.40;99.90
7317;DHT22;3699;51.462;6.696;2022-08-30T07:27:16;24.40;99.90
7317;DHT22;3699;51.462;6.696;2022-08-30T07:29:42;24.30;99.90
7317;DHT22;3699;51.462;6.696;2022-08-30T07:32:09;24.10;99.90
7317;DHT22;3699;51.462;6.696;2022-08-30T07:34:36;23.90;99.90
7317;DHT22;3699;51.462;6.696;2022-08-30T07:37:04;23.70;99.90
7317;DHT22;3699;51.462;6.696;2022-08-30T07:39:31;23.90;99.90
7317;DHT22;3699;51.462;6.696;2022-08-30T07:41:58;23.80;99.90
7317;DHT22;3699;51.462;6.696;2022-08-30T07:44:27;23.60;99.90
7317;DHT22;3699;51.462;6.696;2022-08-30T07:46:53;23.50;99.90
7317;DHT22;3699;51.462;6.696;2022-08-30T07:49:20;23.50;99.90
7317;DHT22;3699;51.462;6.696;2022-08-30T07:51:47;23.50;99.90
7317;DHT22;3699;51.462;6.696;2022-08-30T07:54:15;23.50;99.90
7317;DHT22;3699;51.462;6.696;2022-08-30T07:56:42;23.50;99.90
7317;DHT22;3699;51.462;6.696;2022-08-30T07:59:09;23.60;99.90
7317;DHT22;3699;51.462;6.696;2022-08-30T08:01:35;23.50;99.90
7317;DHT22;3699;51.462;6.696;2022-08-30T08:04:02;23.50;99.90
7317;DHT22;3699;51.462;6.696;2022-08-30T08:06:29;23.60;99.90
7317;DHT22;3699;51.462;6.696;2022-08-30T08:08:56;23.60;99.90
7317;DHT22;3699;51.462;6.696;2022-08-30T08:11:28;23.70;99.90
7317;DHT22;3699;51.462;6.696;2022-08-30T08:13:55;23.80;99.90
7317;DHT22;3699;51.462;6.696;2022-08-30T08:16:24;23.80;99.90
7317;DHT22;3699;51.462;6.696;2022-08-30T08:18:52;23.60;99.90
7317;DHT22;3699;51.462;6.696;2022-08-30T08:21:18;23.70;99.90
7317;DHT22;3699;51.462;6.696;2022-08-30T08:23:45;23.60;99.90
7317;DHT22;3699;51.462;6.696;2022-08-30T08:26:12;23.60;99.90
7317;DHT22;3699;51.462;6.696;2022-08-30T08:28:41;23.70;99.90
7317;DHT22;3699;51.462;6.696;2022-08-30T08:31:13;23.70;99.90
7317;DHT22;3699;51.462;6.696;2022-08-30T08:33:40;23.70;99.90
7317;DHT22;3699;51.462;6.696;2022-08-30T08:36:07;23.70;99.90
7317;DHT22;3699;51.462;6.696;2022-08-30T08:38:33;23.70;99.90
7317;DHT22;3699;51.462;6.696;2022-08-30T08:41:05;23.90;99.90
7317;DHT22;3699;51.462;6.696;2022-08-30T08:43:36;24.00;99.90
7317;DHT22;3699;51.462;6.696;2022-08-30T08:46:09;24.20;99.90
7317;DHT22;3699;51.462;6.696;2022-08-30T08:48:41;24.10;99.90
7317;DHT22;3699;51.462;6.696;2022-08-30T08:51:12;24.10;99.90
7317;DHT22;3699;51.462;6.696;2022-08-30T08:54:00;24.20;99.90
7317;DHT22;3699;51.462;6.696;2022-08-30T08:56:31;24.30;99.90
7317;DHT22;3699;51.462;6.696;2022-08-30T08:58:58;24.40;99.90
7317;DHT22;3699;51.462;6.696;2022-08-30T09:01:28;24.50;99.90
7317;DHT22;3699;51.462;6.696;2022-08-30T09:03:57;24.60;99.90
7317;DHT22;3699;51.462;6.696;2022-08-30T09:06:47;24.80;99.90
7317;DHT22;3699;51.462;6.696;2022-08-30T09:09:18;24.90;99.90
7317;DHT22;3699;51.462;6.696;2022-08-30T09:11:45;24.90;99.90
7317;DHT22;3699;51.462;6.696;2022-08-30T09:14:16;24.90;99.90
7317;DHT22;3699;51.462;6.696;2022-08-30T09:16:49;24.90;99.90
7317;DHT22;3699;51.462;6.696;2022-08-30T09:19:40;24.90;99.90
7317;DHT22;3699;51.462;6.696;2022-08-30T09:22:20;25.20;99.90
7317;DHT22;3699;51.462;6.696;2022-08-30T09:24:50;25.20;99.30
7317;DHT22;3699;51.462;6.696;2022-08-30T09:27:26;25.30;98.50
7317;DHT22;3699;51.462;6.696;2022-08-30T09:29:57;25.30;98.00
7317;DHT22;3699;51.462;6.696;2022-08-30T09:32:32;25.40;97.90
7317;DHT22;3699;51.462;6.696;2022-08-30T09:35:00;25.40;98.10
7317;DHT22;3699;51.462;6.696;2022-08-30T09:37:31;25.30;97.70
7317;DHT22;3699;51.462;6.696;2022-08-30T09:39:59;25.20;98.70
7317;DHT22;3699;51.462;6.696;2022-08-30T09:42:28;25.10;97.40
7317;DHT22;3699;51.462;6.696;2022-08-30T09:44:56;25.30;97.40
7317;DHT22;3699;51.462;6.696;2022-08-30T09:47:37;25.40;96.50
7317;DHT22;3699;51.462;6.696;2022-08-30T09:50:08;25.50;96.70
7317;DHT22;3699;51.462;6.696;2022-08-30T09:52:51;25.60;95.90
7317;DHT22;3699;51.462;6.696;2022-08-30T09:58:34;26.10;89.40
7317;DHT22;3699;51.462;6.696;2022-08-30T10:01:09;26.20;87.80
7317;DHT22;3699;51.462;6.696;2022-08-30T10:03:42;26.20;88.30
7317;DHT22;3699;51.462;6.696;2022-08-30T10:06:17;26.20;86.10
7317;DHT22;3699;51.462;6.696;2022-08-30T10:09:00;26.60;81.10
7317;DHT22;3699;51.462;6.696;2022-08-30T10:11:37;26.60;81.70
7317;DHT22;3699;51.462;6.696;2022-08-30T10:14:28;26.60;79.80
7317;DHT22;3699;51.462;6.696;2022-08-30T10:17:01;26.70;78.20
7317;DHT22;3699;51.462;6.696;2022-08-30T10:19:41;26.70;77.40
7317;DHT22;3699;51.462;6.696;2022-08-30T10:22:13;26.50;75.00
7317;DHT22;3699;51.462;6.696;2022-08-30T10:24:46;26.50;73.20
7317;DHT22;3699;51.462;6.696;2022-08-30T10:27:19;26.50;73.70
7317;DHT22;3699;51.462;6.696;2022-08-30T10:29:50;26.20;73.30
7317;DHT22;3699;51.462;6.696;2022-08-30T10:32:22;26.30;74.20
7317;DHT22;3699;51.462;6.696;2022-08-30T10:34:55;26.40;75.10
7317;DHT22;3699;51.462;6.696;2022-08-30T10:37:24;26.60;74.70
7317;DHT22;3699;51.462;6.696;2022-08-30T10:39:53;26.70;72.30
7317;DHT22;3699;51.462;6.696;2022-08-30T10:42:25;26.60;71.40
7317;DHT22;3699;51.462;6.696;2022-08-30T10:44:57;26.50;70.10
7317;DHT22;3699;51.462;6.696;2022-08-30T10:47:31;26.60;69.90
7317;DHT22;3699;51.462;6.696;2022-08-30T10:50:06;26.60;68.60
7317;DHT22;3699;51.462;6.696;2022-08-30T10:52:40;26.60;69.40
7317;DHT22;3699;51.462;6.696;2022-08-30T10:55:13;26.70;68.70
7317;DHT22;3699;51.462;6.696;2022-08-30T10:57:41;26.90;70.50
7317;DHT22;3699;51.462;6.696;2022-08-30T11:00:12;27.00;66.80
7317;DHT22;3699;51.462;6.696;2022-08-30T11:03:11;27.00;67.50
7317;DHT22;3699;51.462;6.696;2022-08-30T11:05:52;26.90;64.40
7317;DHT22;3699;51.462;6.696;2022-08-30T11:08:31;26.80;65.50
7317;DHT22;3699;51.462;6.696;2022-08-30T11:11:11;26.80;65.20
7317;DHT22;3699;51.462;6.696;2022-08-30T11:13:42;26.80;64.30
7317;DHT22;3699;51.462;6.696;2022-08-30T11:16:12;26.90;65.90
7317;DHT22;3699;51.462;6.696;2022-08-30T11:18:51;27.00;64.40
7317;DHT22;3699;51.462;6.696;2022-08-30T11:21:26;27.20;64.40
7317;DHT22;3699;51.462;6.696;2022-08-30T11:24:03;27.20;62.20
7317;DHT22;3699;51.462;6.696;2022-08-30T11:26:51;27.00;63.10
7317;DHT22;3699;51.462;6.696;2022-08-30T11:29:33;27.00;62.60
7317;DHT22;3699;51.462;6.696;2022-08-30T11:32:22;26.80;62.30
7317;DHT22;3699;51.462;6.696;2022-08-30T11:34:54;26.80;62.90
7317;DHT22;3699;51.462;6.696;2022-08-30T11:37:33;26.70;62.90
7317;DHT22;3699;51.462;6.696;2022-08-30T11:40:03;26.60;62.50
7317;DHT22;3699;51.462;6.696;2022-08-30T11:42:37;26.70;63.70
7317;DHT22;3699;51.462;6.696;2022-08-30T11:45:44;26.90;63.30
7317;DHT22;3699;51.462;6.696;2022-08-30T11:48:48;27.10;63.20
7317;DHT22;3699;51.462;6.696;2022-08-30T11:54:18;27.30;58.10
7317;DHT22;3699;51.462;6.696;2022-08-30T11:56:53;27.30;57.50
7317;DHT22;3699;51.462;6.696;2022-08-30T11:59:31;27.30;57.00
7317;DHT22;3699;51.462;6.696;2022-08-30T12:02:00;27.20;58.50
7317;DHT22;3699;51.462;6.696;2022-08-30T12:04:35;27.30;58.90
7317;DHT22;3699;51.462;6.696;2022-08-30T12:07:04;27.40;58.10
7317;DHT22;3699;51.462;6.696;2022-08-30T12:10:00;27.30;57.60
7317;DHT22;3699;51.462;6.696;2022-08-30T12:12:51;27.30;58.10
7317;DHT22;3699;51.462;6.696;2022-08-30T12:18:30;27.20;55.80
7317;DHT22;3699;51.462;6.696;2022-08-30T12:21:02;27.10;55.50
7317;DHT22;3699;51.462;6.696;2022-08-30T12:23:40;27.00;56.30
7317;DHT22;3699;51.462;6.696;2022-08-30T12:26:28;26.90;55.30
7317;DHT22;3699;51.462;6.696;2022-08-30T12:29:15;24.60;54.60
7317;DHT22;3699;51.462;6.696;2022-08-30T12:31:46;27.10;56.30
7317;DHT22;3699;51.462;6.696;2022-08-30T12:34:25;27.20;57.00
7317;DHT22;3699;51.462;6.696;2022-08-30T12:36:58;27.40;56.80
7317;DHT22;3699;51.462;6.696;2022-08-30T12:39:27;27.30;55.10
7317;DHT22;3699;51.462;6.696;2022-08-30T12:42:08;27.40;55.00
7317;DHT22;3699;51.462;6.696;2022-08-30T12:44:35;27.40;52.70
7317;DHT22;3699;51.462;6.696;2022-08-30T12:47:04;27.40;52.30
7317;DHT22;3699;51.462;6.696;2022-08-30T12:49:35;27.40;52.60
7317;DHT22;3699;51.462;6.696;2022-08-30T12:52:16;27.40;52.60
7317;DHT22;3699;51.462;6.696;2022-08-30T12:54:45;27.30;52.80
7317;DHT22;3699;51.462;6.696;2022-08-30T12:57:34;27.30;53.30
7317;DHT22;3699;51.462;6.696;2022-08-30T13:00:03;27.40;52.90
7317;DHT22;3699;51.462;6.696;2022-08-30T13:02:42;27.30;51.70
7317;DHT22;3699;51.462;6.696;2022-08-30T13:05:30;27.40;53.00
7317;DHT22;3699;51.462;6.696;2022-08-30T13:08:09;27.40;52.40
7317;DHT22;3699;51.462;6.696;2022-08-30T13:10:51;27.40;52.40
7317;DHT22;3699;51.462;6.696;2022-08-30T13:13:32;27.30;52.40
7317;DHT22;3699;51.462;6.696;2022-08-30T13:16:21;27.40;52.50
7317;DHT22;3699;51.462;6.696;2022-08-30T13:18:50;27.50;52.00
7317;DHT22;3699;51.462;6.696;2022-08-30T13:21:21;27.50;51.30
7317;DHT22;3699;51.462;6.696;2022-08-30T13:23:49;27.40;51.60
7317;DHT22;3699;51.462;6.696;2022-08-30T13:26:17;27.50;52.20
7317;DHT22;3699;51.462;6.696;2022-08-30T13:28:52;27.70;51.50
7317;DHT22;3699;51.462;6.696;2022-08-30T13:31:20;27.60;50.70
7317;DHT22;3699;51.462;6.696;2022-08-30T13:33:47;27.60;51.90
7317;DHT22;3699;51.462;6.696;2022-08-30T13:36:17;27.70;50.90
7317;DHT22;3699;51.462;6.696;2022-08-30T13:38:44;27.80;51.40
7317;DHT22;3699;51.462;6.696;2022-08-30T13:41:11;27.70;50.40
7317;DHT22;3699;51.462;6.696;2022-08-30T13:43:38;27.80;50.00
7317;DHT22;3699;51.462;6.696;2022-08-30T13:46:07;27.80;49.50
7317;DHT22;3699;51.462;6.696;2022-08-30T13:48:35;27.70;49.30
7317;DHT22;3699;51.462;6.696;2022-08-30T13:51:02;27.70;49.80
7317;DHT22;3699;51.462;6.696;2022-08-30T13:53:28;27.80;50.40
7317;DHT22;3699;51.462;6.696;2022-08-30T13:55:55;27.80;50.40
7317;DHT22;3699;51.462;6.696;2022-08-30T13:58:22;27.70;50.70
7317;DHT22;3699;51.462;6.696;2022-08-30T14:00:49;27.60;51.70
7317;DHT22;3699;51.462;6.696;2022-08-30T14:03:17;27.60;50.50
7317;DHT22;3699;51.462;6.696;2022-08-30T14:05:44;27.60;50.00
7317;DHT22;3699;51.462;6.696;2022-08-30T14:08:12;27.60;50.90
7317;DHT22;3699;51.462;6.696;2022-08-30T14:10:40;27.70;49.90
7317;DHT22;3699;51.462;6.696;2022-08-30T14:13:07;27.60;50.50
7317;DHT22;3699;51.462;6.696;2022-08-30T14:15:35;27.60;51.60
7317;DHT22;3699;51.462;6.696;2022-08-30T14:18:02;27.70;51.40
7317;DHT22;3699;51.462;6.696;2022-08-30T14:20:31;27.60;50.70
7317;DHT22;3699;51.462;6.696;2022-08-30T14:22:59;27.60;51.00
7317;DHT22;3699;51.462;6.696;2022-08-30T14:25:26;27.50;50.90
7317;DHT22;3699;51.462;6.696;2022-08-30T14:27:54;27.50;51.80
7317;DHT22;3699;51.462;6.696;2022-08-30T14:30:24;27.50;51.50
7317;DHT22;3699;51.462;6.696;2022-08-30T14:32:51;27.50;51.70
7317;DHT22;3699;51.462;6.696;2022-08-30T14:35:18;27.50;50.70
7317;DHT22;3699;51.462;6.696;2022-08-30T14:37:47;27.50;50.80
7317;DHT22;3699;51.462;6.696;2022-08-30T14:40:15;27.40;50.60
7317;DHT22;3699;51.462;6.696;2022-08-30T14:42:42;27.20;50.40
7317;DHT22;3699;51.462;6.696;2022-08-30T14:45:10;27.20;50.70
7317;DHT22;3699;51.462;6.696;2022-08-30T14:47:37;27.20;51.50
7317;DHT22;3699;51.462;6.696;2022-08-30T14:50:05;27.30;51.80
7317;DHT22;3699;51.462;6.696;2022-08-30T14:52:32;27.20;51.20
7317;DHT22;3699;51.462;6.696;2022-08-30T14:55:01;27.10;51.50
7317;DHT22;3699;51.462;6.696;2022-08-30T14:57:28;27.00;52.20
7317;DHT22;3699;51.462;6.696;2022-08-30T14:59:55;26.90;52.10
7317;DHT22;3699;51.462;6.696;2022-08-30T15:02:22;27.20;52.80
7317;DHT22;3699;51.462;6.696;2022-08-30T15:04:48;27.20;51.70
7317;DHT22;3699;51.462;6.696;2022-08-30T15:07:15;27.20;51.90
7317;DHT22;3699;51.462;6.696;2022-08-30T15:09:42;27.20;52.00
7317;DHT22;3699;51.462;6.696;2022-08-30T15:12:10;27.20;51.90
7317;DHT22;3699;51.462;6.696;2022-08-30T15:14:37;27.20;52.50
7317;DHT22;3699;51.462;6.696;2022-08-30T15:17:04;27.20;51.90
7317;DHT22;3699;51.462;6.696;2022-08-30T15:19:31;27.10;51.60
7317;DHT22;3699;51.462;6.696;2022-08-30T15:22:00;27.10;51.50
7317;DHT22;3699;51.462;6.696;2022-08-30T15:24:27;27.00;51.00
7317;DHT22;3699;51.462;6.696;2022-08-30T15:26:55;26.90;51.00
7317;DHT22;3699;51.462;6.696;2022-08-30T15:29:23;26.90;51.40
7317;DHT22;3699;51.462;6.696;2022-08-30T15:31:50;26.90;51.30
7317;DHT22;3699;51.462;6.696;2022-08-30T15:34:19;26.70;50.60
7317;DHT22;3699;51.462;6.696;2022-08-30T15:36:47;26.70;50.40
7317;DHT22;3699;51.462;6.696;2022-08-30T15:39:15;26.70;51.10
7317;DHT22;3699;51.462;6.696;2022-08-30T15:41:44;26.60;51.00
7317;DHT22;3699;51.462;6.696;2022-08-30T15:44:11;26.50;51.00
7317;DHT22;3699;51.462;6.696;2022-08-30T15:46:41;26.50;50.90
7317;DHT22;3699;51.462;6.696;2022-08-30T15:49:11;26.40;51.20
7317;DHT22;3699;51.462;6.696;2022-08-30T15:51:39;26.40;51.30
7317;DHT22;3699;51.462;6.696;2022-08-30T15:54:07;26.30;49.60
7317;DHT22;3699;51.462;6.696;2022-08-30T15:56:34;26.30;50.60
7317;DHT22;3699;51.462;6.696;2022-08-30T15:59:01;26.40;50.00
7317;DHT22;3699;51.462;6.696;2022-08-30T16:01:27;26.40;50.50
7317;DHT22;3699;51.462;6.696;2022-08-30T16:03:56;26.40;50.70
7317;DHT22;3699;51.462;6.696;2022-08-30T16:06:25;26.30;50.40
7317;DHT22;3699;51.462;6.696;2022-08-30T16:08:53;26.20;51.00
7317;DHT22;3699;51.462;6.696;2022-08-30T16:11:21;26.20;51.00
7317;DHT22;3699;51.462;6.696;2022-08-30T16:13:49;26.10;51.10
7317;DHT22;3699;51.462;6.696;2022-08-30T16:16:18;26.10;51.00
7317;DHT22;3699;51.462;6.696;2022-08-30T16:18:45;26.00;51.40
7317;DHT22;3699;51.462;6.696;2022-08-30T16:21:15;26.00;51.90
7317;DHT22;3699;51.462;6.696;2022-08-30T16:23:43;26.00;52.20
7317;DHT22;3699;51.462;6.696;2022-08-30T16:26:11;26.00;52.10
7317;DHT22;3699;51.462;6.696;2022-08-30T16:28:38;26.00;52.70
7317;DHT22;3699;51.462;6.696;2022-08-30T16:31:07;25.80;52.50
7317;DHT22;3699;51.462;6.696;2022-08-30T16:33:35;25.70;52.30
7317;DHT22;3699;51.462;6.696;2022-08-30T16:36:03;25.70;52.40
7317;DHT22;3699;51.462;6.696;2022-08-30T16:38:32;25.60;52.30
7317;DHT22;3699;51.462;6.696;2022-08-30T16:41:02;25.50;52.70